createdAt,value
2019-05-11T00:02:02.346Z,10.60
2019-05-11T00:04:35.026Z,10.90
2019-05-11T00:07:07.703Z,9.20
2019-05-11T00:09:55.693Z,9.57
2019-05-11T00:12:14.599Z,9.80
2019-05-11T00:14:47.279Z,9.53
2019-05-11T00:17:19.723Z,9.03
2019-05-11T00:19:52.431Z,9.23
2019-05-11T00:22:25.106Z,10.90
2019-05-11T00:24:57.799Z,10.97
2019-05-11T00:27:30.478Z,9.87
2019-05-11T00:30:03.154Z,7.73
2019-05-11T00:32:35.775Z,9.70
2019-05-11T00:35:09.636Z,10.07
2019-05-11T00:37:42.214Z,10.50
2019-05-11T00:40:15.269Z,9.97
2019-05-11T00:42:47.976Z,9.63
2019-05-11T00:45:20.714Z,10.83
2019-05-11T00:47:53.339Z,11.40
2019-05-11T00:50:38.563Z,11.77
2019-05-11T00:53:00.335Z,14.53
2019-05-11T00:55:33.111Z,13.23
2019-05-11T00:58:06.099Z,12.20
2019-05-11T01:00:38.786Z,11.17
2019-05-11T01:03:11.364Z,11.27
2019-05-11T01:05:44.368Z,12.03
2019-05-11T01:08:18.048Z,10.77
2019-05-11T01:10:50.721Z,10.60
2019-05-11T01:13:23.812Z,11.73
2019-05-11T01:15:57.620Z,9.67
2019-05-11T01:18:30.301Z,10.50
2019-05-11T01:21:04.419Z,11.53
2019-05-11T01:23:36.984Z,12.93
2019-05-11T01:26:09.671Z,12.30
2019-05-11T01:28:42.353Z,11.87
2019-05-11T01:31:15.036Z,12.00
2019-05-11T01:33:47.697Z,11.93
2019-05-11T01:36:20.735Z,12.67
2019-05-11T01:38:53.373Z,10.50
2019-05-11T01:41:26.040Z,12.20
2019-05-11T01:43:58.724Z,13.20
2019-05-11T01:46:32.737Z,13.13
2019-05-11T01:49:05.515Z,11.80
2019-05-11T01:51:38.195Z,12.63
2019-05-11T01:54:10.426Z,13.70
2019-05-11T01:56:43.047Z,15.40
2019-05-11T01:59:15.718Z,13.47
2019-05-11T02:01:48.350Z,10.93
2019-05-11T02:04:20.974Z,12.80
2019-05-11T02:06:53.651Z,11.67
2019-05-11T02:09:26.240Z,12.33
2019-05-11T02:11:58.905Z,10.77
2019-05-11T02:14:31.543Z,14.77
2019-05-11T02:17:04.162Z,15.83
2019-05-11T02:19:36.416Z,14.87
2019-05-11T02:22:09.020Z,15.20
2019-05-11T02:24:41.456Z,13.70
2019-05-11T02:27:14.065Z,12.43
2019-05-11T02:29:46.758Z,12.23
2019-05-11T02:32:19.474Z,10.63
2019-05-11T02:34:52.108Z,14.53
2019-05-11T02:37:24.364Z,13.80
2019-05-11T02:39:56.593Z,12.70
2019-05-11T02:42:30.651Z,12.77
2019-05-11T02:45:03.245Z,14.47
2019-05-11T02:47:35.918Z,17.67
2019-05-11T02:50:09.923Z,18.73
2019-05-11T02:52:44.052Z,18.60
2019-05-11T02:55:16.716Z,19.63
2019-05-11T02:57:49.399Z,18.60
2019-05-11T03:00:28.912Z,17.60
2019-05-11T03:03:01.616Z,17.03
2019-05-11T03:05:35.312Z,15.17
2019-05-11T03:08:08.224Z,16.10
2019-05-11T03:10:40.851Z,16.63
2019-05-11T03:13:13.590Z,15.77
2019-05-11T03:15:46.335Z,16.40
2019-05-11T03:18:18.698Z,14.80
2019-05-11T03:20:51.494Z,14.67
2019-05-11T03:23:23.747Z,16.37
2019-05-11T03:25:56.446Z,19.00
2019-05-11T03:28:29.120Z,18.43
2019-05-11T03:31:01.906Z,19.47
2019-05-11T03:33:35.921Z,15.97
2019-05-11T03:36:08.599Z,15.17
2019-05-11T03:38:41.284Z,15.90
2019-05-11T03:41:14.768Z,14.17
2019-05-11T03:43:47.451Z,15.40
2019-05-11T03:46:20.486Z,16.87
2019-05-11T03:48:53.112Z,15.30
2019-05-11T03:51:26.107Z,18.67
2019-05-11T03:53:58.779Z,19.50
2019-05-11T03:56:31.461Z,19.27
2019-05-11T03:59:04.155Z,21.20
2019-05-11T04:01:37.124Z,19.77
2019-05-11T04:04:09.794Z,17.57
2019-05-11T04:06:42.065Z,16.83
2019-05-11T04:09:15.161Z,21.37
2019-05-11T04:11:48.142Z,20.60
2019-05-11T04:14:20.819Z,23.50
2019-05-11T04:16:53.814Z,21.10
2019-05-11T04:19:26.491Z,18.47
2019-05-11T04:21:58.754Z,17.60
2019-05-11T04:24:31.432Z,20.20
2019-05-11T04:27:04.141Z,20.87
2019-05-11T04:29:36.800Z,24.60
2019-05-11T04:32:09.580Z,24.73
2019-05-11T04:34:42.462Z,23.13
2019-05-11T04:37:16.788Z,22.80
2019-05-11T04:39:50.372Z,24.43
2019-05-11T04:42:23.372Z,26.90
2019-05-11T04:44:56.345Z,24.57
2019-05-11T04:47:29.347Z,25.97
2019-05-11T04:50:02.342Z,23.97
2019-05-11T04:52:35.366Z,25.90
2019-05-11T04:55:08.395Z,25.33
2019-05-11T04:57:41.298Z,25.17
2019-05-11T05:00:14.800Z,37.57
2019-05-11T05:02:48.702Z,21.73
2019-05-11T05:05:21.365Z,20.23
2019-05-11T05:08:08.275Z,18.77
2019-05-11T05:10:28.986Z,18.67
2019-05-11T05:13:10.136Z,18.60
2019-05-11T05:15:36.941Z,17.40
2019-05-11T05:18:10.704Z,16.63
2019-05-11T05:20:44.067Z,16.37
2019-05-11T05:23:16.985Z,16.00
2019-05-11T05:25:49.677Z,14.67
2019-05-11T05:28:22.293Z,15.87
2019-05-11T05:30:54.543Z,17.97
2019-05-11T05:33:27.181Z,19.20
2019-05-11T05:35:59.862Z,17.20
2019-05-11T05:38:32.751Z,14.47
2019-05-11T05:41:05.041Z,15.77
2019-05-11T05:43:37.706Z,15.93
2019-05-11T05:46:10.380Z,16.07
2019-05-11T05:48:43.049Z,14.33
2019-05-11T05:51:15.753Z,15.60
2019-05-11T05:53:48.017Z,15.47
2019-05-11T05:56:20.754Z,16.20
2019-05-11T05:58:53.553Z,15.23
2019-05-11T06:01:26.241Z,16.17
2019-05-11T06:03:58.927Z,16.40
2019-05-11T06:06:31.915Z,15.20
2019-05-11T06:09:06.955Z,15.87
2019-05-11T06:11:39.639Z,14.13
2019-05-11T06:14:12.311Z,16.33
2019-05-11T06:16:44.990Z,14.33
2019-05-11T06:19:17.669Z,15.63
2019-05-11T06:21:50.330Z,15.67
2019-05-11T06:24:23.012Z,14.87
2019-05-11T06:26:55.702Z,16.17
2019-05-11T06:29:28.412Z,15.23
2019-05-11T06:32:02.615Z,14.90
2019-05-11T06:34:35.271Z,14.97
2019-05-11T06:37:07.954Z,14.97
2019-05-11T06:39:40.635Z,15.00
2019-05-11T06:42:13.321Z,15.97
2019-05-11T06:44:45.990Z,16.10
2019-05-11T06:47:18.664Z,15.27
2019-05-11T06:49:51.353Z,12.77
2019-05-11T06:52:25.053Z,13.40
2019-05-11T06:54:57.737Z,14.40
2019-05-11T06:57:30.410Z,15.97
2019-05-11T07:00:03.094Z,14.57
2019-05-11T07:02:35.319Z,13.57
2019-05-11T07:05:09.061Z,13.43
2019-05-11T07:07:47.485Z,14.77
2019-05-11T07:10:16.666Z,12.80
2019-05-11T07:12:49.242Z,13.50
2019-05-11T07:15:21.923Z,13.03
2019-05-11T07:17:54.612Z,13.53
2019-05-11T07:20:27.279Z,13.20
2019-05-11T07:22:59.957Z,13.17
2019-05-11T07:25:32.947Z,13.00
2019-05-11T07:28:05.625Z,13.07
2019-05-11T07:30:38.299Z,12.80
2019-05-11T07:33:13.144Z,12.20
2019-05-11T07:35:47.815Z,11.17
2019-05-11T07:38:20.302Z,11.50
2019-05-11T07:40:52.937Z,12.03
2019-05-11T07:43:25.993Z,10.60
2019-05-11T07:45:58.886Z,10.53
2019-05-11T07:48:31.562Z,11.27
2019-05-11T07:51:04.136Z,11.17
2019-05-11T07:53:38.101Z,12.23
2019-05-11T07:56:11.030Z,10.83
2019-05-11T07:58:43.710Z,10.93
2019-05-11T08:01:18.677Z,9.27
2019-05-11T08:03:50.869Z,10.87
2019-05-11T08:06:23.385Z,11.30
2019-05-11T08:08:56.073Z,11.07
2019-05-11T08:11:31.356Z,9.17
2019-05-11T08:14:03.069Z,8.53
2019-05-11T08:16:35.633Z,10.77
2019-05-11T08:19:10.637Z,8.80
2019-05-11T08:21:42.129Z,8.03
2019-05-11T08:24:14.387Z,10.03
2019-05-11T08:26:48.040Z,10.50
2019-05-11T08:29:20.982Z,10.87
2019-05-11T08:31:53.660Z,10.50
2019-05-11T08:34:28.417Z,10.47
2019-05-11T08:37:01.353Z,8.60
2019-05-11T08:39:34.638Z,8.47
2019-05-11T08:42:08.740Z,8.60
2019-05-11T08:44:42.852Z,11.00
2019-05-11T08:47:17.871Z,10.27
2019-05-11T08:49:53.811Z,7.87
2019-05-11T08:52:28.254Z,6.97
2019-05-11T08:55:01.290Z,7.63
2019-05-11T08:57:33.969Z,7.77
2019-05-11T09:00:08.551Z,7.17
2019-05-11T09:02:41.595Z,6.60
2019-05-11T09:05:19.642Z,5.37
2019-05-11T09:08:04.677Z,5.33
2019-05-11T09:10:42.733Z,5.20
2019-05-11T09:13:22.799Z,7.63
2019-05-11T09:16:07.908Z,7.17
2019-05-11T09:18:49.981Z,7.70
2019-05-11T09:21:24.658Z,8.77
2019-05-11T09:23:59.732Z,7.70
2019-05-11T09:26:34.265Z,7.67
2019-05-11T09:29:10.571Z,8.13
2019-05-11T09:31:51.191Z,7.20
2019-05-11T09:34:35.161Z,9.07
2019-05-11T09:37:23.789Z,8.93
2019-05-11T09:40:04.144Z,7.73
2019-05-11T09:42:47.313Z,7.63
2019-05-11T09:45:28.045Z,6.73
2019-05-11T09:48:11.698Z,5.77
2019-05-11T09:50:51.236Z,6.07
2019-05-11T09:53:29.363Z,6.13
2019-05-11T09:56:08.646Z,7.40
2019-05-11T09:58:48.257Z,6.33
2019-05-11T10:01:30.460Z,6.90
2019-05-11T10:04:13.679Z,6.40
2019-05-11T10:06:55.408Z,5.80
2019-05-11T10:09:39.055Z,6.60
2019-05-11T10:12:21.435Z,6.10
2019-05-11T10:15:01.536Z,6.10
2019-05-11T10:17:42.770Z,5.93
2019-05-11T10:20:28.470Z,6.13
2019-05-11T10:23:02.389Z,5.20
2019-05-11T10:25:47.933Z,5.83
2019-05-11T10:28:28.471Z,4.77
2019-05-11T10:31:12.913Z,5.07
2019-05-11T10:33:58.435Z,5.00
2019-05-11T10:36:38.320Z,4.90
2019-05-11T10:39:18.634Z,5.67
2019-05-11T10:42:00.621Z,5.87
2019-05-11T10:44:43.626Z,5.67
2019-05-11T10:47:19.850Z,5.57
2019-05-11T10:49:57.888Z,4.97
2019-05-11T10:52:31.352Z,5.77
2019-05-11T10:55:04.345Z,4.50
2019-05-11T10:57:38.619Z,4.53
2019-05-11T11:00:12.991Z,4.60
2019-05-11T11:02:47.679Z,4.57
2019-05-11T11:05:20.106Z,4.63
2019-05-11T11:07:52.774Z,4.43
2019-05-11T11:10:28.521Z,4.10
2019-05-11T11:13:02.008Z,4.60
2019-05-11T11:15:34.603Z,4.90
2019-05-11T11:18:08.505Z,3.90
2019-05-11T11:20:41.606Z,4.23
2019-05-11T11:23:14.810Z,4.47
2019-05-11T11:25:48.151Z,4.40
2019-05-11T11:28:22.737Z,4.57
2019-05-11T11:30:58.448Z,4.80
2019-05-11T11:33:31.652Z,3.60
2019-05-11T11:36:04.540Z,4.23
2019-05-11T11:38:37.692Z,4.63
2019-05-11T11:41:10.611Z,4.87
2019-05-11T11:43:43.306Z,5.07
2019-05-11T11:46:15.969Z,4.40
2019-05-11T11:48:49.116Z,6.30
2019-05-11T11:51:22.034Z,5.57
2019-05-11T11:53:54.721Z,5.80
2019-05-11T11:56:28.385Z,7.33
2019-05-11T11:59:01.353Z,5.90
2019-05-11T12:01:33.993Z,6.33
2019-05-11T12:04:08.250Z,6.37
2019-05-11T12:06:41.498Z,5.87
2019-05-11T12:09:14.169Z,5.30
2019-05-11T12:11:48.597Z,5.33
2019-05-11T12:14:21.063Z,5.53
2019-05-11T12:17:06.805Z,5.60
2019-05-11T12:19:29.705Z,5.63
2019-05-11T12:22:02.274Z,5.13
2019-05-11T12:24:34.954Z,5.57
2019-05-11T12:27:07.845Z,5.77
2019-05-11T12:29:40.535Z,5.77
2019-05-11T12:32:14.852Z,5.77
2019-05-11T12:34:48.217Z,4.63
2019-05-11T12:37:22.091Z,5.60
2019-05-11T12:39:54.945Z,5.53
2019-05-11T12:42:28.386Z,5.57
2019-05-11T12:45:01.220Z,6.40
2019-05-11T12:47:33.885Z,4.80
2019-05-11T12:50:11.619Z,5.20
2019-05-11T12:52:44.274Z,9.57
2019-05-11T12:55:18.023Z,5.07
2019-05-11T12:57:50.945Z,5.10
2019-05-11T13:00:28.162Z,5.10
2019-05-11T13:02:59.470Z,5.23
2019-05-11T13:05:32.156Z,5.77
2019-05-11T13:08:04.854Z,4.50
2019-05-11T13:10:37.685Z,4.90
2019-05-11T13:13:09.991Z,9.87
2019-05-11T13:15:42.588Z,4.83
2019-05-11T13:18:15.257Z,4.60
2019-05-11T13:20:48.368Z,4.37
2019-05-11T13:23:20.746Z,4.27
2019-05-11T13:25:53.414Z,3.90
2019-05-11T13:28:28.229Z,3.97
2019-05-11T13:30:59.938Z,4.53
2019-05-11T13:33:32.553Z,5.33
2019-05-11T13:36:05.229Z,4.50
2019-05-11T13:38:38.863Z,4.57
2019-05-11T13:41:11.921Z,3.63
2019-05-11T13:43:44.596Z,3.23
2019-05-11T13:46:17.978Z,7.33
2019-05-11T13:48:50.889Z,7.80
2019-05-11T13:51:23.563Z,3.90
2019-05-11T13:53:58.293Z,3.37
2019-05-11T13:56:32.326Z,3.37
2019-05-11T13:59:10.690Z,3.47
2019-05-11T14:01:42.651Z,3.00
2019-05-11T14:04:17.902Z,2.87
2019-05-11T14:06:49.938Z,3.60
2019-05-11T14:09:22.555Z,3.30
2019-05-11T14:11:57.973Z,2.97
2019-05-11T14:14:31.291Z,3.37
2019-05-11T14:17:03.984Z,2.90
2019-05-11T14:19:38.461Z,2.70
2019-05-11T14:22:11.890Z,2.97
2019-05-11T14:24:44.573Z,2.90
2019-05-11T14:27:17.926Z,4.60
2019-05-11T14:29:52.194Z,3.10
2019-05-11T14:32:28.459Z,4.80
2019-05-11T14:35:01.229Z,3.63
2019-05-11T14:37:33.507Z,3.60
2019-05-11T14:40:08.896Z,3.90
2019-05-11T14:42:42.242Z,3.03
2019-05-11T14:45:15.022Z,3.50
2019-05-11T14:47:47.849Z,4.00
2019-05-11T14:50:20.583Z,4.00
2019-05-11T14:52:53.253Z,3.67
2019-05-11T14:55:25.479Z,4.33
2019-05-11T14:57:58.209Z,15.17
2019-05-11T15:00:30.883Z,4.50
2019-05-11T15:03:04.391Z,9.43
2019-05-11T15:05:37.952Z,8.83
2019-05-11T15:08:11.393Z,7.93
2019-05-11T15:10:44.067Z,7.63
2019-05-11T15:13:18.599Z,8.67
2019-05-11T15:15:50.952Z,9.93
2019-05-11T15:18:35.171Z,10.30
2019-05-11T15:20:58.059Z,9.37
2019-05-11T15:23:31.049Z,9.20
2019-05-11T15:26:06.904Z,9.87
2019-05-11T15:28:38.153Z,9.60
2019-05-11T15:31:12.258Z,10.87
2019-05-11T15:33:44.927Z,10.23
2019-05-11T15:36:19.280Z,10.10
2019-05-11T15:38:51.969Z,9.63
2019-05-11T15:41:24.667Z,10.57
2019-05-11T15:43:57.941Z,12.40
2019-05-11T15:46:30.989Z,11.40
2019-05-11T15:49:05.331Z,13.13
2019-05-11T15:51:41.181Z,13.70
2019-05-11T15:54:18.313Z,19.73
2019-05-11T15:56:49.911Z,15.40
2019-05-11T15:59:24.229Z,14.40
2019-05-11T16:01:58.143Z,13.43
2019-05-11T16:04:30.588Z,12.43
2019-05-11T16:07:03.280Z,13.50
2019-05-11T16:09:37.905Z,13.30
2019-05-11T16:12:10.269Z,13.90
2019-05-11T16:14:43.053Z,14.60
2019-05-11T16:17:15.744Z,14.20
2019-05-11T16:19:49.064Z,12.00
2019-05-11T16:22:23.702Z,10.87
2019-05-11T16:24:58.065Z,21.93
2019-05-11T16:27:39.630Z,32.63
2019-05-11T16:30:28.582Z,18.93
2019-05-11T16:33:03.639Z,49.40
2019-05-11T16:35:38.287Z,17.27
2019-05-11T16:38:10.923Z,43.17
2019-05-11T16:40:43.806Z,13.50
2019-05-11T16:43:22.608Z,59.13
2019-05-11T16:45:55.389Z,38.03
2019-05-11T16:48:29.695Z,16.23
2019-05-11T16:55:13.348Z,19.70
2019-05-11T17:01:22.714Z,43.03
2019-05-11T17:04:07.357Z,15.00
2019-05-11T17:06:58.350Z,12.80
2019-05-11T17:10:13.385Z,10.87
2019-05-11T17:12:23.863Z,9.40
2019-05-11T17:15:08.805Z,10.13
2019-05-11T17:17:43.779Z,10.20
2019-05-11T17:20:21.101Z,9.90
2019-05-11T17:22:57.570Z,9.77
2019-05-11T17:25:31.721Z,9.73
2019-05-11T17:28:09.886Z,9.40
2019-05-11T17:30:48.102Z,9.30
2019-05-11T17:33:23.366Z,10.33
2019-05-11T17:35:58.822Z,12.40
2019-05-11T17:38:42.905Z,12.57
2019-05-11T17:41:23.884Z,10.73
2019-05-11T17:44:09.133Z,10.23
2019-05-11T17:47:02.392Z,10.40
2019-05-11T17:49:38.428Z,12.20
2019-05-11T17:52:28.275Z,12.87
2019-05-11T17:55:15.241Z,14.50
2019-05-11T17:57:58.070Z,16.40
2019-05-11T18:00:34.924Z,15.23
2019-05-11T18:03:15.463Z,13.87
2019-05-11T18:05:54.448Z,16.60
2019-05-11T18:08:33.631Z,14.30
2019-05-11T18:11:12.908Z,12.40
2019-05-11T18:14:08.538Z,12.87
2019-05-11T18:16:43.479Z,13.83
2019-05-11T18:19:19.119Z,12.90
2019-05-11T18:21:53.793Z,10.90
2019-05-11T18:24:28.538Z,11.07
2019-05-11T18:27:03.950Z,9.77
2019-05-11T18:29:38.024Z,9.20
2019-05-11T18:32:31.385Z,9.03
2019-05-11T18:35:09.356Z,8.30
2019-05-11T18:37:47.812Z,8.10
2019-05-11T18:40:23.909Z,7.53
2019-05-11T18:43:02.824Z,7.17
2019-05-11T18:45:48.759Z,6.57
2019-05-11T18:48:22.163Z,6.73
2019-05-11T18:50:58.945Z,6.90
2019-05-11T18:53:31.950Z,7.20
2019-05-11T18:56:08.790Z,7.03
2019-05-11T18:58:41.804Z,7.50
2019-05-11T19:01:14.806Z,8.73
2019-05-11T19:03:49.062Z,9.17
2019-05-11T19:06:22.004Z,9.50
2019-05-11T19:08:54.757Z,10.30
2019-05-11T19:11:28.970Z,10.77
2019-05-11T19:14:04.327Z,12.00
2019-05-11T19:16:40.502Z,12.03
2019-05-11T19:19:14.494Z,12.40
2019-05-11T19:21:48.323Z,13.60
2019-05-11T19:24:27.883Z,12.53
2019-05-11T19:27:01.530Z,12.73
2019-05-11T19:29:34.434Z,13.13
2019-05-11T19:32:11.132Z,14.27
2019-05-11T19:34:47.906Z,13.53
2019-05-11T19:37:31.614Z,12.40
2019-05-11T19:40:09.061Z,12.70
2019-05-11T19:42:53.734Z,12.00
2019-05-11T19:45:29.323Z,15.57
2019-05-11T19:48:04.332Z,25.97
2019-05-11T19:50:41.620Z,13.43
2019-05-11T19:55:48.439Z,14.00
2019-05-11T19:58:28.985Z,12.90
2019-05-11T20:01:13.683Z,12.00
2019-05-11T20:04:08.195Z,13.07
2019-05-11T20:06:34.928Z,12.73
2019-05-11T20:09:09.821Z,12.10
2019-05-11T20:11:42.504Z,11.63
2019-05-11T20:14:28.306Z,11.33
2019-05-11T20:17:00.945Z,11.27
2019-05-11T20:19:33.198Z,10.97
2019-05-11T20:22:05.885Z,11.30
2019-05-11T20:24:38.508Z,11.63
2019-05-11T20:27:11.367Z,13.07
2019-05-11T20:29:44.035Z,12.30
2019-05-11T20:32:18.644Z,13.43
2019-05-11T20:34:50.942Z,13.40
2019-05-11T20:37:23.843Z,12.57
2019-05-11T20:39:58.460Z,13.67
2019-05-11T20:42:32.270Z,12.33
2019-05-11T20:45:07.748Z,12.13
2019-05-11T20:47:40.373Z,12.93
2019-05-11T20:50:13.242Z,12.80
2019-05-11T20:52:48.041Z,12.53
2019-05-11T20:55:21.271Z,12.03
2019-05-11T20:57:53.965Z,12.57
2019-05-11T21:00:27.914Z,12.70
2019-05-11T21:03:00.732Z,12.60
2019-05-11T21:05:33.430Z,14.83
2019-05-11T21:08:08.315Z,26.37
2019-05-11T21:10:40.418Z,19.80
2019-05-11T21:13:13.107Z,17.47
2019-05-11T21:15:47.898Z,18.47
2019-05-11T21:18:20.209Z,20.57
2019-05-11T21:20:54.029Z,19.10
2019-05-11T21:23:28.829Z,18.47
2019-05-11T21:26:00.646Z,37.53
2019-05-11T21:28:33.359Z,32.17
2019-05-11T21:31:08.018Z,25.07
2019-05-11T21:33:42.791Z,16.30
2019-05-11T21:36:22.392Z,16.37
2019-05-11T21:38:58.764Z,15.83
2019-05-11T21:41:31.606Z,17.27
2019-05-11T21:44:04.301Z,18.43
2019-05-11T21:46:38.251Z,20.33
2019-05-11T21:49:10.989Z,17.37
2019-05-11T21:51:44.062Z,16.40
2019-05-11T21:54:17.163Z,19.90
2019-05-11T21:56:49.943Z,15.03
2019-05-11T21:59:22.624Z,13.30
2019-05-11T22:01:55.505Z,11.97
2019-05-11T22:04:28.628Z,10.33
2019-05-11T22:07:02.699Z,9.33
2019-05-11T22:09:35.490Z,9.27
2019-05-11T22:12:10.785Z,9.23
2019-05-11T22:14:42.994Z,13.10
2019-05-11T22:17:15.674Z,10.13
2019-05-11T22:19:48.421Z,8.43
2019-05-11T22:22:25.073Z,7.70
2019-05-11T22:24:55.303Z,7.10
2019-05-11T22:27:27.981Z,6.80
2019-05-11T22:30:00.610Z,7.40
2019-05-11T22:32:33.180Z,8.27
2019-05-11T22:35:09.995Z,8.50
2019-05-11T22:37:43.867Z,11.63
2019-05-11T22:40:16.653Z,26.53
2019-05-11T22:42:49.330Z,30.73
2019-05-11T22:45:21.993Z,18.80
2019-05-11T22:47:55.403Z,12.93
2019-05-11T22:50:29.129Z,7.40
2019-05-11T22:53:01.990Z,9.40
2019-05-11T22:55:35.177Z,9.23
2019-05-11T22:58:08.647Z,6.60
2019-05-11T23:00:44.740Z,22.43
2019-05-11T23:03:18.874Z,45.80
2019-05-11T23:05:52.038Z,7.43
2019-05-11T23:08:25.014Z,6.10
2019-05-11T23:10:57.809Z,5.63
2019-05-11T23:13:30.781Z,5.03
2019-05-11T23:16:03.368Z,5.20
2019-05-11T23:18:38.866Z,5.60
2019-05-11T23:21:10.783Z,6.30
2019-05-11T23:23:43.548Z,10.53
2019-05-11T23:26:17.851Z,36.40
2019-05-11T23:28:51.372Z,11.40
2019-05-11T23:31:24.351Z,6.83
2019-05-11T23:33:58.045Z,6.43
2019-05-11T23:36:30.731Z,6.70
2019-05-11T23:39:03.822Z,6.70
2019-05-11T23:41:38.012Z,6.63
2019-05-11T23:44:11.852Z,6.00
2019-05-11T23:46:44.533Z,16.83
2019-05-11T23:49:17.985Z,31.63
2019-05-11T23:51:52.037Z,8.70
2019-05-11T23:54:24.721Z,6.83
2019-05-11T23:56:58.358Z,6.37
2019-05-11T23:59:31.092Z,5.73
